createdAt,value
2017-07-19T00:01:23.521Z,24.04
2017-07-19T00:03:50.934Z,23.96
2017-07-19T00:06:18.542Z,24.04
2017-07-19T00:08:45.966Z,24.06
2017-07-19T00:11:13.390Z,24.04
2017-07-19T00:13:40.926Z,24.02
2017-07-19T00:16:08.359Z,23.93
2017-07-19T00:18:35.774Z,23.95
2017-07-19T00:21:03.427Z,23.97
2017-07-19T00:23:30.855Z,23.94
2017-07-19T00:25:58.282Z,23.90
2017-07-19T00:28:25.812Z,23.84
2017-07-19T00:30:53.225Z,23.80
2017-07-19T00:33:20.642Z,23.67
2017-07-19T00:35:48.106Z,23.62
2017-07-19T00:38:15.536Z,23.66
2017-07-19T00:40:42.958Z,23.65
2017-07-19T00:43:10.506Z,23.74
2017-07-19T00:45:37.923Z,23.64
2017-07-19T00:48:05.340Z,23.66
2017-07-19T00:50:33.116Z,23.63
2017-07-19T00:53:00.546Z,23.56
2017-07-19T00:55:27.971Z,23.60
2017-07-19T00:57:55.539Z,23.50
2017-07-19T01:00:22.950Z,23.59
2017-07-19T01:02:50.371Z,23.51
2017-07-19T01:05:18.282Z,23.44
2017-07-19T01:07:45.710Z,23.38
2017-07-19T01:10:13.137Z,23.39
2017-07-19T01:12:40.842Z,23.28
2017-07-19T01:15:08.254Z,23.26
2017-07-19T01:17:35.671Z,23.33
2017-07-19T01:20:03.114Z,23.26
2017-07-19T01:22:30.538Z,23.28
2017-07-19T01:24:57.949Z,23.28
2017-07-19T01:27:25.491Z,23.31
2017-07-19T01:29:52.912Z,23.36
2017-07-19T01:32:20.326Z,23.25
2017-07-19T01:34:47.854Z,23.33
2017-07-19T01:37:15.274Z,23.28
2017-07-19T01:39:42.691Z,23.28
2017-07-19T01:42:10.121Z,23.28
2017-07-19T01:44:37.551Z,23.25
2017-07-19T01:47:04.977Z,23.24
2017-07-19T01:49:32.509Z,23.19
2017-07-19T01:51:59.928Z,23.16
2017-07-19T01:54:27.356Z,23.13
2017-07-19T01:56:55.139Z,23.10
2017-07-19T01:59:22.565Z,23.09
2017-07-19T02:01:49.978Z,23.10
2017-07-19T02:04:17.418Z,23.13
2017-07-19T02:06:44.846Z,23.01
2017-07-19T02:09:12.262Z,23.09
2017-07-19T02:11:39.798Z,22.98
2017-07-19T02:14:07.227Z,23.02
2017-07-19T02:16:34.646Z,22.94
2017-07-19T02:19:02.174Z,22.91
2017-07-19T02:21:29.587Z,22.89
2017-07-19T02:23:57.003Z,22.86
2017-07-19T02:26:24.575Z,22.83
2017-07-19T02:28:51.991Z,22.76
2017-07-19T02:31:19.407Z,22.77
2017-07-19T02:33:46.839Z,22.72
2017-07-19T02:36:14.254Z,22.69
2017-07-19T02:38:41.666Z,22.71
2017-07-19T02:41:09.100Z,22.68
2017-07-19T02:43:36.515Z,22.71
2017-07-19T02:46:03.931Z,22.70
2017-07-19T02:48:31.366Z,22.70
2017-07-19T02:50:58.786Z,22.67
2017-07-19T02:53:26.198Z,22.65
2017-07-19T02:55:53.634Z,22.67
2017-07-19T02:58:21.058Z,22.68
2017-07-19T03:00:48.486Z,22.72
2017-07-19T03:03:16.059Z,22.69
2017-07-19T03:05:43.475Z,22.63
2017-07-19T03:08:10.890Z,22.65
2017-07-19T03:10:38.326Z,22.59
2017-07-19T03:13:05.737Z,22.60
2017-07-19T03:15:33.151Z,22.60
2017-07-19T03:18:00.884Z,22.61
2017-07-19T03:20:28.299Z,22.56
2017-07-19T03:22:55.718Z,22.54
2017-07-19T03:25:23.305Z,22.51
2017-07-19T03:27:50.722Z,22.54
2017-07-19T03:30:18.143Z,22.48
2017-07-19T03:32:45.822Z,22.45
2017-07-19T03:35:13.250Z,22.41
2017-07-19T03:37:40.666Z,22.38
2017-07-19T03:40:08.093Z,22.36
2017-07-19T03:42:35.510Z,22.34
2017-07-19T03:45:02.930Z,22.30
2017-07-19T03:47:30.507Z,22.37
2017-07-19T03:49:57.913Z,22.40
2017-07-19T03:52:25.340Z,22.42
2017-07-19T03:54:52.770Z,22.39
2017-07-19T03:57:20.189Z,22.36
2017-07-19T03:59:47.608Z,22.36
2017-07-19T04:02:15.082Z,22.37
2017-07-19T04:04:42.497Z,22.41
2017-07-19T04:07:09.910Z,22.45
2017-07-19T04:09:37.342Z,22.47
2017-07-19T04:12:04.771Z,22.49
2017-07-19T04:14:33.001Z,22.53
2017-07-19T04:17:00.538Z,22.54
2017-07-19T04:19:27.981Z,22.58
2017-07-19T04:21:55.390Z,22.65
2017-07-19T04:24:22.971Z,22.62
2017-07-19T04:26:50.391Z,22.69
2017-07-19T04:29:17.807Z,22.72
2017-07-19T04:31:45.285Z,22.80
2017-07-19T04:34:12.707Z,22.81
2017-07-19T04:36:40.119Z,22.86
2017-07-19T04:39:07.715Z,22.88
2017-07-19T04:41:35.135Z,22.89
2017-07-19T04:44:02.558Z,22.92
2017-07-19T04:46:30.126Z,22.99
2017-07-19T04:48:57.538Z,23.03
2017-07-19T04:51:24.955Z,23.12
2017-07-19T04:53:52.474Z,23.21
2017-07-19T04:56:19.899Z,23.31
2017-07-19T04:58:47.543Z,23.42
2017-07-19T05:01:19.729Z,23.43
2017-07-19T05:03:47.590Z,23.46
2017-07-19T05:06:15.358Z,23.46
2017-07-19T05:08:44.351Z,23.54
2017-07-19T05:11:13.335Z,23.67
2017-07-19T05:13:40.823Z,23.80
2017-07-19T05:16:09.089Z,23.91
2017-07-19T05:18:37.395Z,24.00
2017-07-19T05:21:04.870Z,24.03
2017-07-19T05:23:32.396Z,24.02
2017-07-19T05:25:59.894Z,23.99
2017-07-19T05:28:27.335Z,23.95
2017-07-19T05:30:54.952Z,23.94
2017-07-19T05:33:22.368Z,23.96
2017-07-19T05:35:49.786Z,23.93
2017-07-19T05:38:18.374Z,23.96
2017-07-19T05:40:45.805Z,23.98
2017-07-19T05:43:13.265Z,24.01
2017-07-19T05:45:40.855Z,24.03
2017-07-19T05:48:08.305Z,24.01
2017-07-19T05:50:35.741Z,24.05
2017-07-19T05:53:03.782Z,24.18
2017-07-19T05:55:31.771Z,24.12
2017-07-19T05:57:59.295Z,24.16
2017-07-19T06:00:28.926Z,24.12
2017-07-19T06:02:57.669Z,24.16
2017-07-19T06:05:25.121Z,24.22
2017-07-19T06:07:54.445Z,24.31
2017-07-19T06:10:24.390Z,24.34
2017-07-19T06:12:51.826Z,24.39
2017-07-19T06:15:19.298Z,24.46
2017-07-19T06:17:46.758Z,24.52
2017-07-19T06:20:14.190Z,24.62
2017-07-19T06:22:41.726Z,24.67
2017-07-19T06:25:09.178Z,24.71
2017-07-19T06:27:36.622Z,24.72
2017-07-19T06:30:04.206Z,24.79
2017-07-19T06:32:31.703Z,24.81
2017-07-19T06:34:59.138Z,24.90
2017-07-19T06:37:26.623Z,24.93
2017-07-19T06:39:54.029Z,24.98
2017-07-19T06:42:21.435Z,25.02
2017-07-19T06:44:49.018Z,25.03
2017-07-19T06:47:16.446Z,25.12
2017-07-19T06:49:43.891Z,25.20
2017-07-19T06:52:13.845Z,25.26
2017-07-19T06:54:41.276Z,25.36
2017-07-19T06:57:08.692Z,25.38
2017-07-19T06:59:36.135Z,25.46
2017-07-19T07:02:03.544Z,25.52
2017-07-19T07:04:30.959Z,25.60
2017-07-19T07:06:58.701Z,25.67
2017-07-19T07:09:26.925Z,25.68
2017-07-19T07:11:54.354Z,25.72
2017-07-19T07:14:21.915Z,25.74
2017-07-19T07:16:49.351Z,25.84
2017-07-19T07:19:17.726Z,25.90
2017-07-19T07:21:45.670Z,25.95
2017-07-19T07:24:13.366Z,26.02
2017-07-19T07:26:40.796Z,26.10
2017-07-19T07:29:08.388Z,26.14
2017-07-19T07:31:36.602Z,26.22
2017-07-19T07:34:05.200Z,26.29
2017-07-19T07:36:33.073Z,26.35
2017-07-19T07:39:01.044Z,26.42
2017-07-19T07:41:29.059Z,26.55
2017-07-19T07:43:57.398Z,26.59
2017-07-19T07:46:25.695Z,26.69
2017-07-19T07:48:53.230Z,26.77
2017-07-19T07:51:20.874Z,26.83
2017-07-19T07:53:49.139Z,26.95
2017-07-19T07:56:16.558Z,26.98
2017-07-19T07:58:44.286Z,26.99
2017-07-19T08:01:11.780Z,27.08
2017-07-19T08:03:39.198Z,27.12
2017-07-19T08:06:07.074Z,27.24
2017-07-19T08:08:34.512Z,27.30
2017-07-19T08:11:01.913Z,27.39
2017-07-19T08:13:29.650Z,27.48
2017-07-19T08:15:57.078Z,27.54
2017-07-19T08:18:24.490Z,27.59
2017-07-19T08:20:52.058Z,27.63
2017-07-19T08:23:19.482Z,27.73
2017-07-19T08:25:46.905Z,27.77
2017-07-19T08:28:14.342Z,27.85
2017-07-19T08:30:41.758Z,27.92
2017-07-19T08:33:09.171Z,27.98
2017-07-19T08:35:36.596Z,28.04
2017-07-19T08:38:04.016Z,28.12
2017-07-19T08:40:31.430Z,28.22
2017-07-19T08:42:58.959Z,28.29
2017-07-19T08:45:26.369Z,28.32
2017-07-19T08:47:53.795Z,28.41
2017-07-19T08:50:21.271Z,28.47
2017-07-19T08:52:48.679Z,28.57
2017-07-19T08:55:16.416Z,28.74
2017-07-19T08:57:44.006Z,28.83
2017-07-19T09:00:11.426Z,28.97
2017-07-19T09:02:38.850Z,29.17
2017-07-19T09:05:06.427Z,29.35
2017-07-19T09:07:33.865Z,29.51
2017-07-19T09:10:01.279Z,29.69
2017-07-19T09:12:28.738Z,29.83
2017-07-19T09:14:56.152Z,29.98
2017-07-19T09:17:23.578Z,30.14
2017-07-19T09:19:51.031Z,30.29
2017-07-19T09:22:18.442Z,30.44
2017-07-19T09:24:45.865Z,30.58
2017-07-19T09:27:13.871Z,30.69
2017-07-19T09:29:41.282Z,30.87
2017-07-19T09:32:08.703Z,31.01
2017-07-19T09:34:36.223Z,31.18
2017-07-19T09:37:03.637Z,31.36
2017-07-19T09:39:31.046Z,31.55
2017-07-19T09:41:58.806Z,31.74
2017-07-19T09:44:26.231Z,31.95
2017-07-19T09:46:53.638Z,32.23
2017-07-19T09:49:21.215Z,32.56
2017-07-19T09:51:48.634Z,32.89
2017-07-19T09:54:16.067Z,33.08
2017-07-19T09:56:43.614Z,33.34
2017-07-19T09:59:11.027Z,33.62
2017-07-19T10:01:38.439Z,33.82
2017-07-19T10:04:05.886Z,34.11
2017-07-19T10:06:33.320Z,34.31
2017-07-19T10:09:00.786Z,34.50
2017-07-19T10:11:28.215Z,34.67
2017-07-19T10:13:55.627Z,34.80
2017-07-19T10:16:23.046Z,34.92
2017-07-19T10:18:50.618Z,35.10
2017-07-19T10:21:18.032Z,35.31
2017-07-19T10:23:45.437Z,35.51
2017-07-19T10:26:13.170Z,35.70
2017-07-19T10:28:40.586Z,35.88
2017-07-19T10:31:08.013Z,35.94
2017-07-19T10:33:35.446Z,36.16
2017-07-19T10:36:02.862Z,36.37
2017-07-19T10:38:30.282Z,36.46
2017-07-19T10:40:57.855Z,36.58
2017-07-19T10:43:25.268Z,36.74
2017-07-19T10:45:52.673Z,36.73
2017-07-19T10:48:20.102Z,36.95
2017-07-19T10:50:47.514Z,37.05
2017-07-19T10:53:14.939Z,37.22
2017-07-19T10:55:42.368Z,37.40
2017-07-19T10:58:09.781Z,37.52
2017-07-19T11:00:37.198Z,37.79
2017-07-19T11:03:04.768Z,37.80
2017-07-19T11:05:32.195Z,37.25
2017-07-19T11:07:59.610Z,36.75
2017-07-19T11:10:27.038Z,36.59
2017-07-19T11:12:54.455Z,36.52
2017-07-19T11:15:21.874Z,36.73
2017-07-19T11:17:49.575Z,37.02
2017-07-19T11:20:16.994Z,37.21
2017-07-19T11:22:44.402Z,37.20
2017-07-19T11:25:12.156Z,37.06
2017-07-19T11:27:39.570Z,37.08
2017-07-19T11:30:06.999Z,36.82
2017-07-19T11:32:34.522Z,36.62
2017-07-19T11:35:01.938Z,36.45
2017-07-19T11:37:29.361Z,36.43
2017-07-19T11:39:56.934Z,36.67
2017-07-19T11:42:24.346Z,37.05
2017-07-19T11:44:51.784Z,37.34
2017-07-19T11:47:19.366Z,37.41
2017-07-19T11:49:46.786Z,37.57
2017-07-19T11:52:14.194Z,37.68
2017-07-19T11:54:42.542Z,37.77
2017-07-19T11:57:09.960Z,37.79
2017-07-19T11:59:37.401Z,37.89
2017-07-19T12:02:05.046Z,38.00
2017-07-19T12:04:32.463Z,38.23
2017-07-19T12:06:59.874Z,38.47
2017-07-19T12:09:27.709Z,38.35
2017-07-19T12:11:56.094Z,38.16
2017-07-19T12:14:23.515Z,37.79
2017-07-19T12:16:51.145Z,37.46
2017-07-19T12:19:18.557Z,37.19
2017-07-19T12:21:45.964Z,36.91
2017-07-19T12:24:13.538Z,36.81
2017-07-19T12:26:40.954Z,36.72
2017-07-19T12:29:08.386Z,36.82
2017-07-19T12:31:36.167Z,36.80
2017-07-19T12:34:03.594Z,36.93
2017-07-19T12:36:31.006Z,36.89
2017-07-19T12:38:58.717Z,36.73
2017-07-19T12:41:26.147Z,36.64
2017-07-19T12:43:53.919Z,36.58
2017-07-19T12:46:21.526Z,36.51
2017-07-19T12:48:56.691Z,36.79
2017-07-19T12:51:24.259Z,37.19
2017-07-19T12:53:51.678Z,37.55
2017-07-19T12:56:19.089Z,37.80
2017-07-19T12:58:46.622Z,38.08
2017-07-19T13:01:14.035Z,38.13
2017-07-19T13:03:41.441Z,37.96
2017-07-19T13:06:09.023Z,37.72
2017-07-19T13:08:36.438Z,37.25
2017-07-19T13:11:03.839Z,36.79
2017-07-19T13:13:31.268Z,36.25
2017-07-19T13:15:58.695Z,35.74
2017-07-19T13:18:26.114Z,35.43
2017-07-19T13:20:53.706Z,35.05
2017-07-19T13:23:21.131Z,34.64
2017-07-19T13:25:48.541Z,34.42
2017-07-19T13:28:16.487Z,34.12
2017-07-19T13:30:43.902Z,33.85
2017-07-19T13:33:11.335Z,33.55
2017-07-19T13:35:38.906Z,33.25
2017-07-19T13:38:06.319Z,32.88
2017-07-19T13:40:33.734Z,32.47
2017-07-19T13:43:01.202Z,32.20
2017-07-19T13:45:28.629Z,31.74
2017-07-19T13:47:56.048Z,31.45
2017-07-19T13:50:23.570Z,30.64
2017-07-19T13:52:50.990Z,29.01
2017-07-19T13:55:18.407Z,27.71
2017-07-19T13:57:45.979Z,26.97
2017-07-19T14:00:13.386Z,25.85
2017-07-19T14:02:40.806Z,25.03
2017-07-19T14:05:09.271Z,24.03
2017-07-19T14:07:39.046Z,23.39
2017-07-19T14:10:06.476Z,23.02
2017-07-19T14:12:33.913Z,22.68
2017-07-19T14:15:01.339Z,22.76
2017-07-19T14:17:28.770Z,22.30
2017-07-19T14:19:56.586Z,22.16
2017-07-19T14:22:24.011Z,22.06
2017-07-19T14:24:51.432Z,22.02
2017-07-19T14:27:18.876Z,21.75
2017-07-19T14:29:46.303Z,21.46
2017-07-19T14:32:13.728Z,21.09
2017-07-19T14:34:41.252Z,20.46
2017-07-19T14:37:08.693Z,20.32
2017-07-19T14:39:36.123Z,20.20
2017-07-19T14:42:03.702Z,20.17
2017-07-19T14:44:31.129Z,20.14
2017-07-19T14:46:58.543Z,20.17
2017-07-19T14:49:26.014Z,20.28
2017-07-19T14:51:53.451Z,20.39
2017-07-19T14:54:20.876Z,20.62
2017-07-19T14:56:48.319Z,20.87
2017-07-19T14:59:15.744Z,20.99
2017-07-19T15:01:43.154Z,20.85
2017-07-19T15:04:10.596Z,20.61
2017-07-19T15:06:38.228Z,20.52
2017-07-19T15:09:05.638Z,20.35
2017-07-19T15:11:33.206Z,20.17
2017-07-19T15:14:00.626Z,20.36
2017-07-19T15:16:28.059Z,20.58
2017-07-19T15:18:55.773Z,20.76
2017-07-19T15:21:23.188Z,20.78
2017-07-19T15:23:50.617Z,20.62
2017-07-19T15:26:18.066Z,20.74
2017-07-19T15:28:45.482Z,20.80
2017-07-19T15:31:12.901Z,20.74
2017-07-19T15:33:40.326Z,20.65
2017-07-19T15:36:07.755Z,20.57
2017-07-19T15:38:35.166Z,20.50
2017-07-19T15:41:02.649Z,20.53
2017-07-19T15:43:30.119Z,20.54
2017-07-19T15:45:57.547Z,20.62
2017-07-19T15:48:25.259Z,20.74
2017-07-19T15:50:52.671Z,20.77
2017-07-19T15:53:20.089Z,20.76
2017-07-19T15:55:47.668Z,20.72
2017-07-19T15:58:15.125Z,20.66
2017-07-19T16:00:42.530Z,20.70
2017-07-19T16:03:10.151Z,20.85
2017-07-19T16:05:37.566Z,20.95
2017-07-19T16:08:05.011Z,21.07
2017-07-19T16:10:32.482Z,21.07
2017-07-19T16:12:59.937Z,20.98
2017-07-19T16:15:27.363Z,20.93
2017-07-19T16:17:55.135Z,20.92
2017-07-19T16:20:22.554Z,20.88
2017-07-19T16:22:49.962Z,20.91
2017-07-19T16:25:17.538Z,20.97
2017-07-19T16:27:44.944Z,20.97
2017-07-19T16:30:12.375Z,21.03
2017-07-19T16:32:44.207Z,21.12
2017-07-19T16:35:11.631Z,21.26
2017-07-19T16:37:39.066Z,21.30
2017-07-19T16:40:06.631Z,21.36
2017-07-19T16:42:34.092Z,21.45
2017-07-19T16:45:01.499Z,21.52
2017-07-19T16:47:28.947Z,21.63
2017-07-19T16:49:56.426Z,21.77
2017-07-19T16:52:23.854Z,21.83
2017-07-19T16:54:51.327Z,21.97
2017-07-19T16:57:18.737Z,21.90
2017-07-19T16:59:46.208Z,22.02
2017-07-19T17:02:13.691Z,22.17
2017-07-19T17:04:41.124Z,22.22
2017-07-19T17:07:08.605Z,22.24
2017-07-19T17:09:36.511Z,22.36
2017-07-19T17:12:04.216Z,22.52
2017-07-19T17:14:31.697Z,22.68
2017-07-19T17:17:00.311Z,22.80
2017-07-19T17:19:27.758Z,22.89
2017-07-19T17:21:55.180Z,22.98
2017-07-19T17:24:22.755Z,23.07
2017-07-19T17:26:50.202Z,23.15
2017-07-19T17:29:17.628Z,23.21
2017-07-19T17:31:45.233Z,23.23
2017-07-19T17:34:12.658Z,23.27
2017-07-19T17:36:40.118Z,23.25
2017-07-19T17:39:07.880Z,23.17
2017-07-19T17:41:35.346Z,23.14
2017-07-19T17:44:02.762Z,23.08
2017-07-19T17:46:30.493Z,23.07
2017-07-19T17:48:57.931Z,23.07
2017-07-19T17:51:25.367Z,23.06
2017-07-19T17:53:52.832Z,23.07
2017-07-19T17:56:20.275Z,23.05
2017-07-19T17:58:47.809Z,23.08
2017-07-19T18:01:15.333Z,23.08
2017-07-19T18:03:42.880Z,23.11
2017-07-19T18:06:10.368Z,23.16
2017-07-19T18:08:37.968Z,23.14
2017-07-19T18:11:05.443Z,23.16
2017-07-19T18:13:32.867Z,23.18
2017-07-19T18:16:00.403Z,23.20
2017-07-19T18:18:29.276Z,23.26
2017-07-19T18:20:56.694Z,23.27
2017-07-19T18:23:24.227Z,23.28
2017-07-19T18:25:51.670Z,23.22
2017-07-19T18:28:19.086Z,23.16
2017-07-19T18:30:46.745Z,23.14
2017-07-19T18:33:14.171Z,23.15
2017-07-19T18:35:41.957Z,23.10
2017-07-19T18:38:09.421Z,22.98
2017-07-19T18:40:36.848Z,22.97
2017-07-19T18:43:04.303Z,22.88
2017-07-19T18:45:31.843Z,22.81
2017-07-19T18:47:59.258Z,22.78
2017-07-19T18:50:26.679Z,22.81
2017-07-19T18:52:54.202Z,22.80
2017-07-19T18:55:21.631Z,22.78
2017-07-19T18:57:49.087Z,22.80
2017-07-19T19:00:16.689Z,22.71
2017-07-19T19:02:44.093Z,22.66
2017-07-19T19:05:11.550Z,22.60
2017-07-19T19:07:39.334Z,22.60
2017-07-19T19:10:06.751Z,22.56
2017-07-19T19:12:34.185Z,22.51
2017-07-19T19:15:01.710Z,22.48
2017-07-19T19:17:29.173Z,22.41
2017-07-19T19:19:56.578Z,22.29
2017-07-19T19:22:24.069Z,22.20
2017-07-19T19:24:51.500Z,22.11
2017-07-19T19:27:18.931Z,22.03
2017-07-19T19:29:46.902Z,21.95
2017-07-19T19:32:14.355Z,21.87
2017-07-19T19:34:41.774Z,21.79
2017-07-19T19:37:09.407Z,21.70
2017-07-19T19:39:36.831Z,21.65
2017-07-19T19:42:05.218Z,21.62
2017-07-19T19:44:32.882Z,21.54
2017-07-19T19:47:00.296Z,21.48
2017-07-19T19:49:28.614Z,21.41
2017-07-19T19:51:56.510Z,21.36
2017-07-19T19:54:24.827Z,21.31
2017-07-19T19:56:52.287Z,21.25
2017-07-19T19:59:19.827Z,21.21
2017-07-19T20:01:47.250Z,21.20
2017-07-19T20:04:14.693Z,21.17
2017-07-19T20:06:42.438Z,21.15
2017-07-19T20:09:09.851Z,21.11
2017-07-19T20:11:37.274Z,21.10
2017-07-19T20:14:04.879Z,21.07
2017-07-19T20:16:32.322Z,21.07
2017-07-19T20:18:59.740Z,21.05
2017-07-19T20:21:27.337Z,21.06
2017-07-19T20:23:54.756Z,21.04
2017-07-19T20:26:22.196Z,21.05
2017-07-19T20:28:49.932Z,21.08
2017-07-19T20:31:17.358Z,21.10
2017-07-19T20:33:44.781Z,21.11
2017-07-19T20:36:12.528Z,21.12
2017-07-19T20:38:39.974Z,21.12
2017-07-19T20:41:07.394Z,21.14
2017-07-19T20:43:34.834Z,21.15
2017-07-19T20:46:02.286Z,21.10
2017-07-19T20:48:29.695Z,21.08
2017-07-19T20:50:57.230Z,21.03
2017-07-19T20:53:24.646Z,20.98
2017-07-19T20:55:52.058Z,20.94
2017-07-19T20:58:19.680Z,20.89
2017-07-19T21:00:47.083Z,20.92
2017-07-19T21:03:14.514Z,20.91
2017-07-19T21:05:42.091Z,20.84
2017-07-19T21:08:13.045Z,20.79
2017-07-19T21:10:40.449Z,20.77
2017-07-19T21:13:08.057Z,20.76
2017-07-19T21:15:35.479Z,20.73
2017-07-19T21:18:02.901Z,20.69
2017-07-19T21:20:30.373Z,20.68
2017-07-19T21:22:57.786Z,20.65
2017-07-19T21:25:25.210Z,20.65
2017-07-19T21:27:52.794Z,20.66
2017-07-19T21:30:20.224Z,20.65
2017-07-19T21:32:47.634Z,20.68
2017-07-19T21:35:15.467Z,20.70
2017-07-19T21:37:42.886Z,20.67
2017-07-19T21:40:10.298Z,20.67
2017-07-19T21:42:37.967Z,20.63
2017-07-19T21:45:05.386Z,20.63
2017-07-19T21:47:32.805Z,20.64
2017-07-19T21:50:00.266Z,20.61
2017-07-19T21:52:27.690Z,20.60
2017-07-19T21:54:55.119Z,20.61
2017-07-19T21:57:22.714Z,20.59
2017-07-19T21:59:50.138Z,20.60
2017-07-19T22:02:17.551Z,20.55
2017-07-19T22:04:45.091Z,20.54
2017-07-19T22:07:12.513Z,20.52
2017-07-19T22:09:39.930Z,20.52
2017-07-19T22:12:07.399Z,20.55
2017-07-19T22:14:34.820Z,20.54
2017-07-19T22:17:02.236Z,20.57
2017-07-19T22:19:29.954Z,20.61
2017-07-19T22:21:57.377Z,20.62
2017-07-19T22:24:24.797Z,20.65
2017-07-19T22:26:52.630Z,20.66
2017-07-19T22:29:20.033Z,20.71
2017-07-19T22:31:47.439Z,20.74
2017-07-19T22:34:14.918Z,20.75
2017-07-19T22:36:42.335Z,20.79
2017-07-19T22:39:09.767Z,20.86
2017-07-19T22:41:37.205Z,20.84
2017-07-19T22:44:04.642Z,20.93
2017-07-19T22:46:32.067Z,20.94
2017-07-19T22:48:59.552Z,20.96
2017-07-19T22:51:26.974Z,20.98
2017-07-19T22:53:54.426Z,20.98
2017-07-19T22:56:22.318Z,20.99
2017-07-19T22:58:49.763Z,21.07
2017-07-19T23:01:17.178Z,21.07
2017-07-19T23:03:44.893Z,21.06
2017-07-19T23:06:12.306Z,21.08
2017-07-19T23:08:39.727Z,21.08
2017-07-19T23:11:07.308Z,21.12
2017-07-19T23:13:34.726Z,21.15
2017-07-19T23:16:02.138Z,21.15
2017-07-19T23:18:29.618Z,21.20
2017-07-19T23:20:57.028Z,21.18
2017-07-19T23:23:24.463Z,21.19
2017-07-19T23:25:51.902Z,21.18
2017-07-19T23:28:19.318Z,21.16
2017-07-19T23:30:46.736Z,21.15
2017-07-19T23:33:14.552Z,21.15
2017-07-19T23:35:41.968Z,21.15
2017-07-19T23:38:09.383Z,21.14
2017-07-19T23:40:36.892Z,21.18
2017-07-19T23:43:04.301Z,21.19
2017-07-19T23:45:31.726Z,21.19
2017-07-19T23:47:59.300Z,21.18
2017-07-19T23:50:26.726Z,21.22
2017-07-19T23:52:54.158Z,21.25
2017-07-19T23:55:22.099Z,21.25
2017-07-19T23:57:49.507Z,21.26
